sensor_id;sensor_type;location;lat;lon;timestamp;P1;durP1;ratioP1;P2;durP2;ratioP2
75823;SDS011;64457;51.976;9.834;2023-03-21T00:00:42;25.17;;;11.50;;
75823;SDS011;64457;51.976;9.834;2023-03-21T00:03:10;25.17;;;11.50;;
75823;SDS011;64457;51.976;9.834;2023-03-21T00:05:38;32.40;;;13.30;;
75823;SDS011;64457;51.976;9.834;2023-03-21T00:08:06;24.30;;;12.33;;
75823;SDS011;64457;51.976;9.834;2023-03-21T00:10:34;24.13;;;11.77;;
75823;SDS011;64457;51.976;9.834;2023-03-21T00:13:01;23.27;;;11.93;;
75823;SDS011;64457;51.976;9.834;2023-03-21T00:15:29;25.07;;;12.60;;
75823;SDS011;64457;51.976;9.834;2023-03-21T00:17:58;30.40;;;13.40;;
75823;SDS011;64457;51.976;9.834;2023-03-21T00:20:28;26.27;;;12.50;;
75823;SDS011;64457;51.976;9.834;2023-03-21T00:22:58;26.37;;;13.57;;
75823;SDS011;64457;51.976;9.834;2023-03-21T00:25:25;28.60;;;13.80;;
75823;SDS011;64457;51.976;9.834;2023-03-21T00:27:53;28.33;;;12.97;;
75823;SDS011;64457;51.976;9.834;2023-03-21T00:30:20;25.27;;;12.80;;
75823;SDS011;64457;51.976;9.834;2023-03-21T00:32:48;28.03;;;12.37;;
75823;SDS011;64457;51.976;9.834;2023-03-21T00:35:16;31.77;;;13.50;;
75823;SDS011;64457;51.976;9.834;2023-03-21T00:37:44;28.27;;;13.43;;
75823;SDS011;64457;51.976;9.834;2023-03-21T00:40:11;28.47;;;13.23;;
75823;SDS011;64457;51.976;9.834;2023-03-21T00:42:39;28.93;;;13.00;;
75823;SDS011;64457;51.976;9.834;2023-03-21T00:45:06;28.90;;;13.57;;
75823;SDS011;64457;51.976;9.834;2023-03-21T00:47:34;27.57;;;13.23;;
75823;SDS011;64457;51.976;9.834;2023-03-21T00:50:03;27.83;;;13.47;;
75823;SDS011;64457;51.976;9.834;2023-03-21T00:52:33;31.43;;;14.40;;
75823;SDS011;64457;51.976;9.834;2023-03-21T00:55:00;30.70;;;14.17;;
75823;SDS011;64457;51.976;9.834;2023-03-21T00:57:27;33.93;;;13.30;;
75823;SDS011;64457;51.976;9.834;2023-03-21T00:59:54;29.93;;;13.50;;
75823;SDS011;64457;51.976;9.834;2023-03-21T01:02:22;30.27;;;14.13;;
75823;SDS011;64457;51.976;9.834;2023-03-21T01:04:51;28.20;;;13.90;;
75823;SDS011;64457;51.976;9.834;2023-03-21T01:07:18;26.53;;;13.20;;
75823;SDS011;64457;51.976;9.834;2023-03-21T01:09:47;27.60;;;12.87;;
75823;SDS011;64457;51.976;9.834;2023-03-21T01:12:15;28.30;;;13.50;;
75823;SDS011;64457;51.976;9.834;2023-03-21T01:14:42;28.73;;;12.83;;
75823;SDS011;64457;51.976;9.834;2023-03-21T01:17:09;31.13;;;13.67;;
75823;SDS011;64457;51.976;9.834;2023-03-21T01:19:36;25.80;;;12.73;;
75823;SDS011;64457;51.976;9.834;2023-03-21T01:22:03;30.03;;;14.13;;
75823;SDS011;64457;51.976;9.834;2023-03-21T01:24:31;32.93;;;14.53;;
75823;SDS011;64457;51.976;9.834;2023-03-21T01:27:00;34.63;;;15.37;;
75823;SDS011;64457;51.976;9.834;2023-03-21T01:29:27;26.20;;;13.47;;
75823;SDS011;64457;51.976;9.834;2023-03-21T01:31:55;31.27;;;13.83;;
75823;SDS011;64457;51.976;9.834;2023-03-21T01:34:22;30.73;;;12.97;;
75823;SDS011;64457;51.976;9.834;2023-03-21T01:36:49;28.40;;;13.27;;
75823;SDS011;64457;51.976;9.834;2023-03-21T01:39:16;31.40;;;14.10;;
75823;SDS011;64457;51.976;9.834;2023-03-21T01:41:43;33.30;;;13.00;;
75823;SDS011;64457;51.976;9.834;2023-03-21T01:44:15;25.00;;;12.40;;
75823;SDS011;64457;51.976;9.834;2023-03-21T01:46:45;25.47;;;12.83;;
75823;SDS011;64457;51.976;9.834;2023-03-21T01:49:16;24.80;;;12.57;;
75823;SDS011;64457;51.976;9.834;2023-03-21T01:51:49;28.20;;;13.47;;
75823;SDS011;64457;51.976;9.834;2023-03-21T01:54:20;27.63;;;11.87;;
75823;SDS011;64457;51.976;9.834;2023-03-21T01:56:53;32.33;;;14.37;;
75823;SDS011;64457;51.976;9.834;2023-03-21T01:59:25;23.50;;;11.83;;
75823;SDS011;64457;51.976;9.834;2023-03-21T02:02:00;27.13;;;11.97;;
75823;SDS011;64457;51.976;9.834;2023-03-21T02:04:31;27.63;;;12.27;;
75823;SDS011;64457;51.976;9.834;2023-03-21T02:07:01;28.90;;;12.47;;
75823;SDS011;64457;51.976;9.834;2023-03-21T02:09:34;27.70;;;12.17;;
75823;SDS011;64457;51.976;9.834;2023-03-21T02:12:04;25.60;;;11.50;;
75823;SDS011;64457;51.976;9.834;2023-03-21T02:14:36;25.77;;;12.00;;
75823;SDS011;64457;51.976;9.834;2023-03-21T02:17:07;27.63;;;12.83;;
75823;SDS011;64457;51.976;9.834;2023-03-21T02:23:01;29.33;;;11.57;;
75823;SDS011;64457;51.976;9.834;2023-03-21T02:29:30;27.57;;;12.60;;
75823;SDS011;64457;51.976;9.834;2023-03-21T02:32:32;26.17;;;12.57;;
75823;SDS011;64457;51.976;9.834;2023-03-21T02:35:24;33.70;;;12.20;;
75823;SDS011;64457;51.976;9.834;2023-03-21T02:38:03;25.83;;;11.63;;
75823;SDS011;64457;51.976;9.834;2023-03-21T02:40:36;22.67;;;11.83;;
75823;SDS011;64457;51.976;9.834;2023-03-21T02:43:10;28.40;;;12.17;;
75823;SDS011;64457;51.976;9.834;2023-03-21T02:45:45;31.40;;;11.90;;
75823;SDS011;64457;51.976;9.834;2023-03-21T02:48:19;27.07;;;11.13;;
75823;SDS011;64457;51.976;9.834;2023-03-21T02:50:51;29.07;;;11.30;;
75823;SDS011;64457;51.976;9.834;2023-03-21T02:53:24;29.40;;;10.37;;
75823;SDS011;64457;51.976;9.834;2023-03-21T02:55:56;22.77;;;10.37;;
75823;SDS011;64457;51.976;9.834;2023-03-21T02:58:26;25.10;;;10.03;;
75823;SDS011;64457;51.976;9.834;2023-03-21T03:00:55;21.50;;;9.60;;
75823;SDS011;64457;51.976;9.834;2023-03-21T03:03:23;21.67;;;8.93;;
75823;SDS011;64457;51.976;9.834;2023-03-21T03:05:51;24.10;;;10.10;;
75823;SDS011;64457;51.976;9.834;2023-03-21T03:08:26;22.93;;;9.43;;
75823;SDS011;64457;51.976;9.834;2023-03-21T03:11:09;19.63;;;8.60;;
75823;SDS011;64457;51.976;9.834;2023-03-21T03:13:52;17.03;;;8.53;;
75823;SDS011;64457;51.976;9.834;2023-03-21T03:16:30;19.53;;;8.20;;
75823;SDS011;64457;51.976;9.834;2023-03-21T03:19:07;28.33;;;9.53;;
75823;SDS011;64457;51.976;9.834;2023-03-21T03:21:41;23.27;;;8.63;;
75823;SDS011;64457;51.976;9.834;2023-03-21T03:24:16;18.57;;;8.20;;
75823;SDS011;64457;51.976;9.834;2023-03-21T03:26:50;21.20;;;9.70;;
75823;SDS011;64457;51.976;9.834;2023-03-21T03:29:22;19.67;;;9.53;;
75823;SDS011;64457;51.976;9.834;2023-03-21T03:31:52;21.70;;;9.67;;
75823;SDS011;64457;51.976;9.834;2023-03-21T03:34:24;22.37;;;9.77;;
75823;SDS011;64457;51.976;9.834;2023-03-21T03:36:57;19.43;;;8.80;;
75823;SDS011;64457;51.976;9.834;2023-03-21T03:39:32;19.63;;;9.17;;
75823;SDS011;64457;51.976;9.834;2023-03-21T03:42:04;29.17;;;10.13;;
75823;SDS011;64457;51.976;9.834;2023-03-21T03:44:34;23.77;;;10.60;;
75823;SDS011;64457;51.976;9.834;2023-03-21T03:47:03;26.77;;;10.57;;
75823;SDS011;64457;51.976;9.834;2023-03-21T03:49:35;26.97;;;10.40;;
75823;SDS011;64457;51.976;9.834;2023-03-21T03:52:08;24.93;;;9.60;;
75823;SDS011;64457;51.976;9.834;2023-03-21T03:54:40;21.60;;;11.30;;
75823;SDS011;64457;51.976;9.834;2023-03-21T03:57:10;38.40;;;11.70;;
75823;SDS011;64457;51.976;9.834;2023-03-21T03:59:39;24.30;;;11.43;;
75823;SDS011;64457;51.976;9.834;2023-03-21T04:02:09;24.87;;;10.67;;
75823;SDS011;64457;51.976;9.834;2023-03-21T04:04:36;25.27;;;10.67;;
75823;SDS011;64457;51.976;9.834;2023-03-21T04:07:04;26.80;;;11.30;;
75823;SDS011;64457;51.976;9.834;2023-03-21T04:09:33;23.40;;;11.07;;
75823;SDS011;64457;51.976;9.834;2023-03-21T04:12:02;27.13;;;11.23;;
75823;SDS011;64457;51.976;9.834;2023-03-21T04:14:30;25.33;;;11.60;;
75823;SDS011;64457;51.976;9.834;2023-03-21T04:16:57;24.93;;;11.80;;
75823;SDS011;64457;51.976;9.834;2023-03-21T04:19:24;22.03;;;10.87;;
75823;SDS011;64457;51.976;9.834;2023-03-21T04:21:51;24.00;;;10.93;;
75823;SDS011;64457;51.976;9.834;2023-03-21T04:24:18;24.80;;;10.50;;
75823;SDS011;64457;51.976;9.834;2023-03-21T04:26:46;24.53;;;10.37;;
75823;SDS011;64457;51.976;9.834;2023-03-21T04:29:15;23.40;;;11.00;;
75823;SDS011;64457;51.976;9.834;2023-03-21T04:31:42;21.10;;;9.80;;
75823;SDS011;64457;51.976;9.834;2023-03-21T04:34:10;21.90;;;10.17;;
75823;SDS011;64457;51.976;9.834;2023-03-21T04:36:37;24.00;;;9.50;;
75823;SDS011;64457;51.976;9.834;2023-03-21T04:39:07;29.37;;;9.83;;
75823;SDS011;64457;51.976;9.834;2023-03-21T04:41:37;21.97;;;10.03;;
75823;SDS011;64457;51.976;9.834;2023-03-21T04:44:04;22.00;;;9.70;;
75823;SDS011;64457;51.976;9.834;2023-03-21T04:46:33;25.20;;;10.60;;
75823;SDS011;64457;51.976;9.834;2023-03-21T04:49:01;23.10;;;9.33;;
75823;SDS011;64457;51.976;9.834;2023-03-21T04:51:29;21.40;;;9.60;;
75823;SDS011;64457;51.976;9.834;2023-03-21T04:53:56;23.67;;;10.27;;
75823;SDS011;64457;51.976;9.834;2023-03-21T04:56:23;23.80;;;9.43;;
75823;SDS011;64457;51.976;9.834;2023-03-21T04:58:56;20.43;;;8.50;;
75823;SDS011;64457;51.976;9.834;2023-03-21T05:01:24;24.30;;;9.40;;
75823;SDS011;64457;51.976;9.834;2023-03-21T05:03:56;25.37;;;11.53;;
75823;SDS011;64457;51.976;9.834;2023-03-21T05:06:24;22.93;;;9.77;;
75823;SDS011;64457;51.976;9.834;2023-03-21T05:08:52;20.30;;;9.30;;
75823;SDS011;64457;51.976;9.834;2023-03-21T05:11:20;25.40;;;10.10;;
75823;SDS011;64457;51.976;9.834;2023-03-21T05:13:48;26.57;;;10.50;;
75823;SDS011;64457;51.976;9.834;2023-03-21T05:16:15;23.17;;;9.50;;
75823;SDS011;64457;51.976;9.834;2023-03-21T05:18:42;23.13;;;10.27;;
75823;SDS011;64457;51.976;9.834;2023-03-21T05:21:11;25.67;;;9.70;;
75823;SDS011;64457;51.976;9.834;2023-03-21T05:23:42;25.50;;;9.70;;
75823;SDS011;64457;51.976;9.834;2023-03-21T05:26:09;27.50;;;9.97;;
75823;SDS011;64457;51.976;9.834;2023-03-21T05:28:36;24.67;;;10.50;;
75823;SDS011;64457;51.976;9.834;2023-03-21T05:31:04;24.60;;;9.70;;
75823;SDS011;64457;51.976;9.834;2023-03-21T05:33:32;18.73;;;8.90;;
75823;SDS011;64457;51.976;9.834;2023-03-21T05:36:00;23.27;;;9.37;;
75823;SDS011;64457;51.976;9.834;2023-03-21T05:38:28;22.70;;;9.47;;
75823;SDS011;64457;51.976;9.834;2023-03-21T05:40:55;21.60;;;9.77;;
75823;SDS011;64457;51.976;9.834;2023-03-21T05:43:22;21.97;;;9.20;;
75823;SDS011;64457;51.976;9.834;2023-03-21T05:45:50;16.83;;;8.67;;
75823;SDS011;64457;51.976;9.834;2023-03-21T05:48:17;23.40;;;9.07;;
75823;SDS011;64457;51.976;9.834;2023-03-21T05:50:44;23.63;;;8.70;;
75823;SDS011;64457;51.976;9.834;2023-03-21T05:53:11;24.00;;;9.10;;
75823;SDS011;64457;51.976;9.834;2023-03-21T05:55:40;23.43;;;9.40;;
75823;SDS011;64457;51.976;9.834;2023-03-21T05:58:07;27.33;;;9.47;;
75823;SDS011;64457;51.976;9.834;2023-03-21T06:00:34;27.17;;;9.17;;
75823;SDS011;64457;51.976;9.834;2023-03-21T06:03:01;22.00;;;9.20;;
75823;SDS011;64457;51.976;9.834;2023-03-21T06:05:29;24.23;;;8.47;;
75823;SDS011;64457;51.976;9.834;2023-03-21T06:07:56;26.20;;;9.27;;
75823;SDS011;64457;51.976;9.834;2023-03-21T06:10:23;24.23;;;9.33;;
75823;SDS011;64457;51.976;9.834;2023-03-21T06:12:51;24.30;;;9.27;;
75823;SDS011;64457;51.976;9.834;2023-03-21T06:15:19;18.43;;;7.70;;
75823;SDS011;64457;51.976;9.834;2023-03-21T06:17:46;17.77;;;7.93;;
75823;SDS011;64457;51.976;9.834;2023-03-21T06:20:13;17.23;;;7.10;;
75823;SDS011;64457;51.976;9.834;2023-03-21T06:22:40;17.70;;;8.40;;
75823;SDS011;64457;51.976;9.834;2023-03-21T06:25:07;19.60;;;8.17;;
75823;SDS011;64457;51.976;9.834;2023-03-21T06:27:35;19.93;;;8.73;;
75823;SDS011;64457;51.976;9.834;2023-03-21T06:30:04;21.30;;;8.67;;
75823;SDS011;64457;51.976;9.834;2023-03-21T06:32:33;22.03;;;8.90;;
75823;SDS011;64457;51.976;9.834;2023-03-21T06:35:00;20.90;;;8.73;;
75823;SDS011;64457;51.976;9.834;2023-03-21T06:37:27;21.50;;;8.73;;
75823;SDS011;64457;51.976;9.834;2023-03-21T06:39:54;20.87;;;8.90;;
75823;SDS011;64457;51.976;9.834;2023-03-21T06:42:22;21.33;;;8.57;;
75823;SDS011;64457;51.976;9.834;2023-03-21T06:44:49;17.87;;;7.83;;
75823;SDS011;64457;51.976;9.834;2023-03-21T06:47:17;20.80;;;7.43;;
75823;SDS011;64457;51.976;9.834;2023-03-21T06:49:45;21.20;;;8.40;;
75823;SDS011;64457;51.976;9.834;2023-03-21T06:52:12;18.97;;;7.93;;
75823;SDS011;64457;51.976;9.834;2023-03-21T06:54:39;19.50;;;8.00;;
75823;SDS011;64457;51.976;9.834;2023-03-21T06:57:06;17.10;;;7.30;;
75823;SDS011;64457;51.976;9.834;2023-03-21T06:59:33;18.57;;;7.77;;
75823;SDS011;64457;51.976;9.834;2023-03-21T07:02:01;18.57;;;7.63;;
75823;SDS011;64457;51.976;9.834;2023-03-21T07:04:30;18.80;;;8.10;;
75823;SDS011;64457;51.976;9.834;2023-03-21T07:06:57;20.97;;;7.37;;
75823;SDS011;64457;51.976;9.834;2023-03-21T07:09:24;18.47;;;7.80;;
75823;SDS011;64457;51.976;9.834;2023-03-21T07:11:52;18.63;;;8.10;;
75823;SDS011;64457;51.976;9.834;2023-03-21T07:14:19;23.27;;;7.83;;
75823;SDS011;64457;51.976;9.834;2023-03-21T07:16:48;17.57;;;7.20;;
75823;SDS011;64457;51.976;9.834;2023-03-21T07:19:15;15.20;;;6.90;;
75823;SDS011;64457;51.976;9.834;2023-03-21T07:21:43;20.10;;;8.33;;
75823;SDS011;64457;51.976;9.834;2023-03-21T07:24:10;17.20;;;6.70;;
75823;SDS011;64457;51.976;9.834;2023-03-21T07:26:38;18.13;;;7.27;;
75823;SDS011;64457;51.976;9.834;2023-03-21T07:29:05;19.73;;;7.57;;
75823;SDS011;64457;51.976;9.834;2023-03-21T07:31:32;18.07;;;7.80;;
75823;SDS011;64457;51.976;9.834;2023-03-21T07:34:00;23.53;;;7.80;;
75823;SDS011;64457;51.976;9.834;2023-03-21T07:36:27;20.33;;;7.00;;
75823;SDS011;64457;51.976;9.834;2023-03-21T07:38:56;19.07;;;8.20;;
75823;SDS011;64457;51.976;9.834;2023-03-21T07:41:23;20.00;;;8.07;;
75823;SDS011;64457;51.976;9.834;2023-03-21T07:43:50;27.37;;;9.20;;
75823;SDS011;64457;51.976;9.834;2023-03-21T07:46:17;15.10;;;7.00;;
75823;SDS011;64457;51.976;9.834;2023-03-21T07:48:44;19.90;;;8.20;;
75823;SDS011;64457;51.976;9.834;2023-03-21T07:51:12;21.50;;;7.70;;
75823;SDS011;64457;51.976;9.834;2023-03-21T07:53:39;18.23;;;6.73;;
75823;SDS011;64457;51.976;9.834;2023-03-21T07:56:09;19.40;;;7.30;;
75823;SDS011;64457;51.976;9.834;2023-03-21T07:58:36;23.20;;;7.23;;
75823;SDS011;64457;51.976;9.834;2023-03-21T08:01:03;15.93;;;6.53;;
75823;SDS011;64457;51.976;9.834;2023-03-21T08:03:31;16.40;;;7.37;;
75823;SDS011;64457;51.976;9.834;2023-03-21T08:05:58;18.33;;;7.30;;
75823;SDS011;64457;51.976;9.834;2023-03-21T08:08:26;14.73;;;6.80;;
75823;SDS011;64457;51.976;9.834;2023-03-21T08:10:53;19.20;;;7.90;;
75823;SDS011;64457;51.976;9.834;2023-03-21T08:13:21;20.20;;;6.80;;
75823;SDS011;64457;51.976;9.834;2023-03-21T08:15:50;21.87;;;7.77;;
75823;SDS011;64457;51.976;9.834;2023-03-21T08:18:17;20.50;;;7.70;;
75823;SDS011;64457;51.976;9.834;2023-03-21T08:20:44;20.73;;;8.00;;
75823;SDS011;64457;51.976;9.834;2023-03-21T08:23:16;15.23;;;6.50;;
75823;SDS011;64457;51.976;9.834;2023-03-21T08:25:43;19.67;;;7.30;;
75823;SDS011;64457;51.976;9.834;2023-03-21T08:28:11;19.00;;;7.47;;
75823;SDS011;64457;51.976;9.834;2023-03-21T08:30:39;21.30;;;7.13;;
75823;SDS011;64457;51.976;9.834;2023-03-21T08:33:06;25.87;;;8.13;;
75823;SDS011;64457;51.976;9.834;2023-03-21T08:35:34;17.10;;;7.10;;
75823;SDS011;64457;51.976;9.834;2023-03-21T08:38:01;18.37;;;7.97;;
75823;SDS011;64457;51.976;9.834;2023-03-21T08:40:29;22.83;;;7.27;;
75823;SDS011;64457;51.976;9.834;2023-03-21T08:42:56;22.70;;;6.90;;
75823;SDS011;64457;51.976;9.834;2023-03-21T08:45:23;17.43;;;7.20;;
75823;SDS011;64457;51.976;9.834;2023-03-21T08:47:53;15.40;;;7.27;;
75823;SDS011;64457;51.976;9.834;2023-03-21T08:50:22;23.80;;;7.30;;
75823;SDS011;64457;51.976;9.834;2023-03-21T08:52:53;21.00;;;7.60;;
75823;SDS011;64457;51.976;9.834;2023-03-21T08:55:21;23.33;;;7.03;;
75823;SDS011;64457;51.976;9.834;2023-03-21T08:57:48;19.30;;;7.80;;
75823;SDS011;64457;51.976;9.834;2023-03-21T09:00:16;19.67;;;7.30;;
75823;SDS011;64457;51.976;9.834;2023-03-21T09:02:45;24.00;;;7.50;;
75823;SDS011;64457;51.976;9.834;2023-03-21T09:05:17;23.00;;;7.50;;
75823;SDS011;64457;51.976;9.834;2023-03-21T09:07:44;17.80;;;7.33;;
75823;SDS011;64457;51.976;9.834;2023-03-21T09:10:14;23.80;;;7.87;;
75823;SDS011;64457;51.976;9.834;2023-03-21T09:12:44;17.50;;;7.47;;
75823;SDS011;64457;51.976;9.834;2023-03-21T09:15:12;19.13;;;7.80;;
75823;SDS011;64457;51.976;9.834;2023-03-21T09:17:40;19.33;;;7.67;;
75823;SDS011;64457;51.976;9.834;2023-03-21T09:20:08;21.07;;;7.80;;
75823;SDS011;64457;51.976;9.834;2023-03-21T09:22:44;20.07;;;7.53;;
75823;SDS011;64457;51.976;9.834;2023-03-21T09:25:12;18.63;;;7.43;;
75823;SDS011;64457;51.976;9.834;2023-03-21T09:27:40;21.90;;;7.57;;
75823;SDS011;64457;51.976;9.834;2023-03-21T09:30:10;18.60;;;7.83;;
75823;SDS011;64457;51.976;9.834;2023-03-21T09:32:38;24.20;;;8.00;;
75823;SDS011;64457;51.976;9.834;2023-03-21T09:35:06;19.33;;;8.00;;
75823;SDS011;64457;51.976;9.834;2023-03-21T09:37:35;24.53;;;8.60;;
75823;SDS011;64457;51.976;9.834;2023-03-21T09:40:12;22.90;;;9.10;;
75823;SDS011;64457;51.976;9.834;2023-03-21T09:42:45;21.67;;;8.07;;
75823;SDS011;64457;51.976;9.834;2023-03-21T09:45:26;22.97;;;8.37;;
75823;SDS011;64457;51.976;9.834;2023-03-21T09:48:03;22.37;;;8.40;;
75823;SDS011;64457;51.976;9.834;2023-03-21T09:50:32;19.40;;;7.97;;
75823;SDS011;64457;51.976;9.834;2023-03-21T09:53:04;21.73;;;7.83;;
75823;SDS011;64457;51.976;9.834;2023-03-21T09:55:42;16.10;;;6.87;;
75823;SDS011;64457;51.976;9.834;2023-03-21T09:58:12;20.43;;;7.63;;
75823;SDS011;64457;51.976;9.834;2023-03-21T10:00:51;20.80;;;7.83;;
75823;SDS011;64457;51.976;9.834;2023-03-21T10:03:25;24.40;;;8.30;;
75823;SDS011;64457;51.976;9.834;2023-03-21T10:05:59;24.80;;;7.77;;
75823;SDS011;64457;51.976;9.834;2023-03-21T10:08:32;21.63;;;7.90;;
75823;SDS011;64457;51.976;9.834;2023-03-21T10:11:05;20.10;;;8.47;;
75823;SDS011;64457;51.976;9.834;2023-03-21T10:13:40;24.10;;;8.70;;
75823;SDS011;64457;51.976;9.834;2023-03-21T10:16:14;18.50;;;7.30;;
75823;SDS011;64457;51.976;9.834;2023-03-21T10:18:44;20.67;;;7.53;;
75823;SDS011;64457;51.976;9.834;2023-03-21T10:21:16;19.43;;;8.00;;
75823;SDS011;64457;51.976;9.834;2023-03-21T10:23:47;18.73;;;6.90;;
75823;SDS011;64457;51.976;9.834;2023-03-21T10:26:18;19.90;;;6.83;;
75823;SDS011;64457;51.976;9.834;2023-03-21T10:28:47;20.37;;;7.63;;
75823;SDS011;64457;51.976;9.834;2023-03-21T10:31:16;18.67;;;7.53;;
75823;SDS011;64457;51.976;9.834;2023-03-21T10:33:45;23.20;;;8.17;;
75823;SDS011;64457;51.976;9.834;2023-03-21T10:36:15;16.60;;;6.67;;
75823;SDS011;64457;51.976;9.834;2023-03-21T10:38:48;16.50;;;7.00;;
75823;SDS011;64457;51.976;9.834;2023-03-21T10:41:19;18.40;;;6.57;;
75823;SDS011;64457;51.976;9.834;2023-03-21T10:44:02;17.63;;;7.03;;
75823;SDS011;64457;51.976;9.834;2023-03-21T10:46:32;20.37;;;7.23;;
75823;SDS011;64457;51.976;9.834;2023-03-21T10:49:00;19.67;;;7.00;;
75823;SDS011;64457;51.976;9.834;2023-03-21T10:51:29;17.23;;;6.97;;
75823;SDS011;64457;51.976;9.834;2023-03-21T10:53:59;15.80;;;6.17;;
75823;SDS011;64457;51.976;9.834;2023-03-21T10:56:34;17.63;;;7.17;;
75823;SDS011;64457;51.976;9.834;2023-03-21T10:59:03;18.07;;;7.30;;
75823;SDS011;64457;51.976;9.834;2023-03-21T11:01:34;17.50;;;6.80;;
75823;SDS011;64457;51.976;9.834;2023-03-21T11:04:05;21.27;;;7.80;;
75823;SDS011;64457;51.976;9.834;2023-03-21T11:06:36;24.00;;;8.23;;
75823;SDS011;64457;51.976;9.834;2023-03-21T11:09:06;16.20;;;7.20;;
75823;SDS011;64457;51.976;9.834;2023-03-21T11:11:42;21.70;;;6.70;;
75823;SDS011;64457;51.976;9.834;2023-03-21T11:14:24;18.03;;;7.10;;
75823;SDS011;64457;51.976;9.834;2023-03-21T11:16:57;18.33;;;7.30;;
75823;SDS011;64457;51.976;9.834;2023-03-21T11:19:27;16.97;;;7.03;;
75823;SDS011;64457;51.976;9.834;2023-03-21T11:21:57;17.70;;;7.17;;
75823;SDS011;64457;51.976;9.834;2023-03-21T11:24:29;25.63;;;7.47;;
75823;SDS011;64457;51.976;9.834;2023-03-21T11:26:58;21.13;;;8.03;;
75823;SDS011;64457;51.976;9.834;2023-03-21T11:29:28;19.07;;;9.20;;
75823;SDS011;64457;51.976;9.834;2023-03-21T11:31:58;27.03;;;8.80;;
75823;SDS011;64457;51.976;9.834;2023-03-21T11:34:30;22.93;;;9.10;;
75823;SDS011;64457;51.976;9.834;2023-03-21T11:37:15;18.90;;;7.60;;
75823;SDS011;64457;51.976;9.834;2023-03-21T11:39:46;21.83;;;7.63;;
75823;SDS011;64457;51.976;9.834;2023-03-21T11:45:00;17.50;;;7.43;;
75823;SDS011;64457;51.976;9.834;2023-03-21T11:47:36;15.47;;;7.60;;
75823;SDS011;64457;51.976;9.834;2023-03-21T11:50:08;21.67;;;7.57;;
75823;SDS011;64457;51.976;9.834;2023-03-21T11:52:49;20.87;;;7.40;;
75823;SDS011;64457;51.976;9.834;2023-03-21T11:55:30;18.00;;;7.17;;
75823;SDS011;64457;51.976;9.834;2023-03-21T12:01:01;24.90;;;8.90;;
75823;SDS011;64457;51.976;9.834;2023-03-21T12:03:46;22.30;;;9.40;;
75823;SDS011;64457;51.976;9.834;2023-03-21T12:06:24;23.60;;;9.03;;
75823;SDS011;64457;51.976;9.834;2023-03-21T12:12:16;25.00;;;10.00;;
75823;SDS011;64457;51.976;9.834;2023-03-21T12:14:57;20.27;;;10.07;;
75823;SDS011;64457;51.976;9.834;2023-03-21T12:17:35;22.87;;;10.00;;
75823;SDS011;64457;51.976;9.834;2023-03-21T12:20:28;23.40;;;10.13;;
75823;SDS011;64457;51.976;9.834;2023-03-21T12:23:14;25.20;;;10.20;;
75823;SDS011;64457;51.976;9.834;2023-03-21T12:26:02;25.87;;;10.30;;
75823;SDS011;64457;51.976;9.834;2023-03-21T12:28:41;24.10;;;10.57;;
75823;SDS011;64457;51.976;9.834;2023-03-21T12:31:26;23.30;;;10.80;;
75823;SDS011;64457;51.976;9.834;2023-03-21T12:34:07;30.60;;;10.10;;
75823;SDS011;64457;51.976;9.834;2023-03-21T12:36:50;25.20;;;9.80;;
75823;SDS011;64457;51.976;9.834;2023-03-21T12:39:31;19.50;;;9.37;;
75823;SDS011;64457;51.976;9.834;2023-03-21T12:42:21;25.70;;;9.90;;
75823;SDS011;64457;51.976;9.834;2023-03-21T12:45:19;21.87;;;9.03;;
75823;SDS011;64457;51.976;9.834;2023-03-21T12:47:52;23.70;;;9.53;;
75823;SDS011;64457;51.976;9.834;2023-03-21T12:50:37;30.07;;;10.40;;
75823;SDS011;64457;51.976;9.834;2023-03-21T12:53:06;28.90;;;9.50;;
75823;SDS011;64457;51.976;9.834;2023-03-21T12:55:46;23.33;;;9.60;;
75823;SDS011;64457;51.976;9.834;2023-03-21T12:58:15;20.10;;;8.70;;
75823;SDS011;64457;51.976;9.834;2023-03-21T13:00:47;21.90;;;9.23;;
75823;SDS011;64457;51.976;9.834;2023-03-21T13:03:21;19.53;;;8.63;;
75823;SDS011;64457;51.976;9.834;2023-03-21T13:05:55;20.83;;;8.80;;
75823;SDS011;64457;51.976;9.834;2023-03-21T13:08:24;22.30;;;9.83;;
75823;SDS011;64457;51.976;9.834;2023-03-21T13:10:56;21.60;;;8.93;;
75823;SDS011;64457;51.976;9.834;2023-03-21T13:13:27;19.70;;;8.80;;
75823;SDS011;64457;51.976;9.834;2023-03-21T13:16:02;22.60;;;8.80;;
75823;SDS011;64457;51.976;9.834;2023-03-21T13:18:41;26.07;;;9.70;;
75823;SDS011;64457;51.976;9.834;2023-03-21T13:21:35;21.93;;;8.77;;
75823;SDS011;64457;51.976;9.834;2023-03-21T13:24:17;25.13;;;9.53;;
75823;SDS011;64457;51.976;9.834;2023-03-21T13:27:00;19.87;;;9.33;;
75823;SDS011;64457;51.976;9.834;2023-03-21T13:29:32;22.10;;;8.93;;
75823;SDS011;64457;51.976;9.834;2023-03-21T13:32:09;20.57;;;9.00;;
75823;SDS011;64457;51.976;9.834;2023-03-21T13:34:54;19.47;;;8.23;;
75823;SDS011;64457;51.976;9.834;2023-03-21T13:37:24;16.03;;;7.30;;
75823;SDS011;64457;51.976;9.834;2023-03-21T13:39:58;23.00;;;8.90;;
75823;SDS011;64457;51.976;9.834;2023-03-21T13:42:33;26.10;;;9.33;;
75823;SDS011;64457;51.976;9.834;2023-03-21T13:45:05;18.87;;;8.17;;
75823;SDS011;64457;51.976;9.834;2023-03-21T13:47:38;23.70;;;9.00;;
75823;SDS011;64457;51.976;9.834;2023-03-21T13:50:24;23.83;;;10.17;;
75823;SDS011;64457;51.976;9.834;2023-03-21T13:56:08;22.40;;;10.50;;
75823;SDS011;64457;51.976;9.834;2023-03-21T13:58:53;23.53;;;10.20;;
75823;SDS011;64457;51.976;9.834;2023-03-21T14:01:27;24.10;;;9.53;;
75823;SDS011;64457;51.976;9.834;2023-03-21T14:04:03;21.93;;;9.33;;
75823;SDS011;64457;51.976;9.834;2023-03-21T14:06:40;23.73;;;9.30;;
75823;SDS011;64457;51.976;9.834;2023-03-21T14:09:14;19.93;;;8.60;;
75823;SDS011;64457;51.976;9.834;2023-03-21T14:11:48;20.90;;;8.50;;
75823;SDS011;64457;51.976;9.834;2023-03-21T14:14:18;20.93;;;8.50;;
75823;SDS011;64457;51.976;9.834;2023-03-21T14:16:47;26.37;;;8.10;;
75823;SDS011;64457;51.976;9.834;2023-03-21T14:19:14;22.37;;;8.50;;
75823;SDS011;64457;51.976;9.834;2023-03-21T14:21:49;18.40;;;7.93;;
75823;SDS011;64457;51.976;9.834;2023-03-21T14:24:18;18.93;;;7.53;;
75823;SDS011;64457;51.976;9.834;2023-03-21T14:26:47;18.33;;;7.30;;
75823;SDS011;64457;51.976;9.834;2023-03-21T14:29:21;24.87;;;8.83;;
75823;SDS011;64457;51.976;9.834;2023-03-21T14:31:51;18.30;;;7.60;;
75823;SDS011;64457;51.976;9.834;2023-03-21T14:34:20;17.63;;;8.07;;
75823;SDS011;64457;51.976;9.834;2023-03-21T14:36:50;17.70;;;6.77;;
75823;SDS011;64457;51.976;9.834;2023-03-21T14:39:19;23.30;;;10.23;;
75823;SDS011;64457;51.976;9.834;2023-03-21T14:41:49;18.70;;;7.90;;
75823;SDS011;64457;51.976;9.834;2023-03-21T14:44:20;18.43;;;7.03;;
75823;SDS011;64457;51.976;9.834;2023-03-21T14:46:53;14.90;;;6.60;;
75823;SDS011;64457;51.976;9.834;2023-03-21T14:49:27;19.67;;;7.33;;
75823;SDS011;64457;51.976;9.834;2023-03-21T14:51:58;21.77;;;8.07;;
75823;SDS011;64457;51.976;9.834;2023-03-21T14:54:27;16.80;;;6.50;;
75823;SDS011;64457;51.976;9.834;2023-03-21T14:56:57;15.70;;;7.10;;
75823;SDS011;64457;51.976;9.834;2023-03-21T14:59:29;17.73;;;6.37;;
75823;SDS011;64457;51.976;9.834;2023-03-21T15:01:59;17.43;;;6.83;;
75823;SDS011;64457;51.976;9.834;2023-03-21T15:04:29;18.13;;;7.13;;
75823;SDS011;64457;51.976;9.834;2023-03-21T15:06:59;17.13;;;6.60;;
75823;SDS011;64457;51.976;9.834;2023-03-21T15:09:30;18.00;;;6.40;;
75823;SDS011;64457;51.976;9.834;2023-03-21T15:12:00;15.73;;;6.27;;